createdAt,value
2023-03-28T00:02:30.800Z,2.25
2023-03-28T00:07:32.624Z,1.10
2023-03-28T00:12:34.458Z,2.75
2023-03-28T00:17:41.817Z,3.58
2023-03-28T00:22:44.262Z,2.45
2023-03-28T00:27:46.569Z,2.15
2023-03-28T00:32:48.528Z,2.38
2023-03-28T00:37:53.802Z,3.08
2023-03-28T00:42:55.905Z,11.73
2023-03-28T00:48:04.751Z,1.60
2023-03-28T00:53:21.180Z,1.60
2023-03-28T00:58:26.855Z,3.00
2023-03-28T01:03:35.175Z,1.35
2023-03-28T01:08:44.170Z,3.92
2023-03-28T01:13:50.435Z,1.83
2023-03-28T01:18:53.620Z,1.38
2023-03-28T01:24:12.711Z,4.72
2023-03-28T01:29:38.123Z,2.72
2023-03-28T01:35:16.394Z,2.80
2023-03-28T01:40:37.076Z,4.43
2023-03-28T01:45:49.872Z,1.13
2023-03-28T01:51:01.444Z,7.78
2023-03-28T01:56:30.841Z,4.50
2023-03-28T02:01:54.042Z,1.38
2023-03-28T02:06:57.321Z,8.32
2023-03-28T02:12:11.691Z,2.97
2023-03-28T02:17:29.241Z,9.50
2023-03-28T02:22:49.439Z,2.15
2023-03-28T02:28:21.992Z,1.95
2023-03-28T02:33:48.040Z,4.53
2023-03-28T02:39:18.737Z,18.10
2023-03-28T02:44:45.560Z,8.35
2023-03-28T02:49:54.593Z,4.65
2023-03-28T02:55:23.906Z,3.03
2023-03-28T03:00:43.883Z,3.38
2023-03-28T03:05:45.783Z,3.47
2023-03-28T03:10:47.632Z,6.13
2023-03-28T03:15:50.464Z,10.57
2023-03-28T03:20:58.386Z,8.80
2023-03-28T03:26:00.806Z,3.92
2023-03-28T03:31:17.612Z,5.78
2023-03-28T03:36:42.846Z,2.83
2023-03-28T03:41:45.003Z,3.20
2023-03-28T03:46:46.884Z,1.83
2023-03-28T03:51:48.704Z,5.18
2023-03-28T03:56:52.001Z,2.42
2023-03-28T04:01:56.196Z,4.18
2023-03-28T04:07:15.448Z,2.22
2023-03-28T04:12:18.793Z,1.10
2023-03-28T04:17:29.054Z,0.50
2023-03-28T04:22:36.020Z,6.07
2023-03-28T04:27:54.678Z,4.22
2023-03-28T04:32:59.039Z,4.63
2023-03-28T04:38:02.932Z,2.33
2023-03-28T04:43:04.912Z,4.20
2023-03-28T04:48:13.994Z,5.50
2023-03-28T04:53:17.455Z,5.53
2023-03-28T04:58:39.442Z,3.35
2023-03-28T05:03:42.889Z,5.03
2023-03-28T05:08:46.335Z,1.63
2023-03-28T05:13:49.497Z,1.00
2023-03-28T05:19:02.953Z,2.25
2023-03-28T05:24:24.795Z,5.25
2023-03-28T05:29:28.393Z,5.15
2023-03-28T05:34:31.036Z,3.85
2023-03-28T05:39:33.157Z,6.30
2023-03-28T05:44:38.722Z,4.53
2023-03-28T05:50:01.471Z,1.98
2023-03-28T05:55:05.547Z,4.15
2023-03-28T06:00:13.711Z,4.10
2023-03-28T06:05:21.668Z,4.80
2023-03-28T06:10:24.284Z,3.50
2023-03-28T06:15:49.492Z,2.63
2023-03-28T06:20:53.365Z,8.25
2023-03-28T06:25:55.490Z,7.85
2023-03-28T06:30:58.706Z,3.50
2023-03-28T06:36:00.962Z,3.90
2023-03-28T06:41:07.287Z,2.75
2023-03-28T06:46:10.961Z,3.42
2023-03-28T06:51:18.607Z,3.17
2023-03-28T06:56:21.219Z,6.35
2023-03-28T07:01:23.584Z,7.50
2023-03-28T07:06:34.064Z,5.00
2023-03-28T07:11:36.342Z,14.05
2023-03-28T07:16:38.438Z,4.75
2023-03-28T07:21:40.858Z,2.13
2023-03-28T07:26:43.059Z,4.00
2023-03-28T07:31:44.960Z,2.00
2023-03-28T07:36:46.801Z,2.67
2023-03-28T07:46:56.453Z,4.95
2023-03-28T07:51:59.476Z,1.70
2023-03-28T07:57:01.416Z,3.53
2023-03-28T08:02:35.765Z,4.97
2023-03-28T08:07:37.732Z,5.18
2023-03-28T08:12:40.840Z,4.82
2023-03-28T08:17:44.367Z,2.33
2023-03-28T08:22:46.866Z,2.95
2023-03-28T08:28:07.486Z,1.75
2023-03-28T08:33:10.294Z,2.10
2023-03-28T08:38:13.312Z,2.75
2023-03-28T08:43:15.557Z,1.45
2023-03-28T08:48:23.466Z,1.25
2023-03-28T08:53:37.539Z,1.42
2023-03-28T08:58:58.179Z,1.30
2023-03-28T09:04:01.046Z,2.33
2023-03-28T09:09:18.868Z,0.90
2023-03-28T09:15:05.456Z,1.98
2023-03-28T09:20:22.680Z,1.85
2023-03-28T09:25:45.744Z,1.38
2023-03-28T09:30:52.251Z,3.28
2023-03-28T09:35:57.729Z,1.02
2023-03-28T09:41:07.412Z,3.60
2023-03-28T09:46:23.666Z,1.30
2023-03-28T09:51:28.853Z,1.70
2023-03-28T09:56:41.173Z,1.80
2023-03-28T10:01:57.785Z,1.35
2023-03-28T10:07:34.165Z,4.03
2023-03-28T10:13:05.812Z,0.70
2023-03-28T10:18:22.201Z,1.42
2023-03-28T10:24:02.470Z,0.60
2023-03-28T10:29:10.774Z,0.90
2023-03-28T10:34:26.463Z,1.30
2023-03-28T10:40:07.800Z,0.65
2023-03-28T10:45:39.941Z,1.17
2023-03-28T10:50:47.467Z,0.90
2023-03-28T10:56:08.582Z,1.00
2023-03-28T11:01:30.081Z,0.80
2023-03-28T11:07:01.660Z,0.60
2023-03-28T11:12:56.656Z,3.45
2023-03-28T11:18:45.381Z,0.85
2023-03-28T11:24:13.077Z,2.00
2023-03-28T11:29:46.141Z,1.25
2023-03-28T11:35:13.519Z,1.73
2023-03-28T11:40:45.516Z,2.47
2023-03-28T11:45:55.976Z,4.40
2023-03-28T11:51:20.364Z,1.17
2023-03-28T11:56:49.024Z,1.73
2023-03-28T12:02:23.555Z,1.13
2023-03-28T12:07:34.636Z,2.60
2023-03-28T12:13:18.832Z,2.40
2023-03-28T12:18:45.590Z,0.68
2023-03-28T12:24:46.881Z,4.50
2023-03-28T12:30:20.727Z,1.23
2023-03-28T12:35:45.351Z,0.98
2023-03-28T12:40:56.092Z,1.02
2023-03-28T12:46:03.443Z,1.48
2023-03-28T12:51:22.723Z,2.10
2023-03-28T12:56:24.649Z,1.92
2023-03-28T13:01:39.523Z,3.55
2023-03-28T13:07:10.528Z,2.17
2023-03-28T13:12:25.933Z,1.63
2023-03-28T13:17:31.435Z,1.85
2023-03-28T13:22:42.098Z,3.00
2023-03-28T13:27:43.903Z,4.80
2023-03-28T13:32:49.252Z,5.43
2023-03-28T13:37:51.109Z,11.90
2023-03-28T13:42:59.986Z,9.05
2023-03-28T13:48:13.181Z,1.65
2023-03-28T13:53:16.058Z,10.75
2023-03-28T13:58:19.117Z,5.65
2023-03-28T14:03:21.232Z,5.65
2023-03-28T14:08:25.668Z,7.40
2023-03-28T14:13:31.091Z,4.65
2023-03-28T14:18:41.032Z,4.03
2023-03-28T14:24:13.046Z,4.22
2023-03-28T14:29:18.195Z,6.15
2023-03-28T14:34:30.461Z,3.05
2023-03-28T14:39:34.972Z,5.13
2023-03-28T14:44:41.698Z,7.10
2023-03-28T14:49:45.008Z,2.05
2023-03-28T14:54:49.193Z,2.78
2023-03-28T14:59:52.586Z,1.98
2023-03-28T15:04:58.424Z,1.35
2023-03-28T15:10:18.473Z,1.85
2023-03-28T15:15:32.824Z,2.95
2023-03-28T15:20:37.129Z,8.38
2023-03-28T15:25:39.243Z,4.63
2023-03-28T15:30:44.337Z,2.42
2023-03-28T15:35:47.015Z,2.38
2023-03-28T15:40:51.494Z,3.35
2023-03-28T15:46:17.677Z,1.20
2023-03-28T15:51:19.953Z,3.17
2023-03-28T15:56:35.350Z,5.68
2023-03-28T16:01:37.199Z,1.05
2023-03-28T16:06:44.448Z,2.65
2023-03-28T16:11:49.261Z,5.07
2023-03-28T16:17:11.450Z,7.50
2023-03-28T16:22:25.262Z,4.05
2023-03-28T16:27:27.229Z,5.50
2023-03-28T16:32:29.205Z,2.38
2023-03-28T16:37:31.134Z,2.92
2023-03-28T16:42:32.949Z,5.25
2023-03-28T16:47:34.722Z,5.18
2023-03-28T16:52:40.623Z,7.03
2023-03-28T16:57:43.227Z,8.63
2023-03-28T17:02:49.609Z,4.28
2023-03-28T17:07:52.179Z,5.32
2023-03-28T17:12:54.134Z,2.97
2023-03-28T17:17:56.070Z,3.53
2023-03-28T17:22:58.669Z,6.20
2023-03-28T17:28:00.799Z,9.48
2023-03-28T17:33:04.915Z,6.45
2023-03-28T17:38:07.616Z,4.15
2023-03-28T17:43:11.575Z,5.30
2023-03-28T17:48:13.439Z,3.00
2023-03-28T17:53:15.501Z,3.42
2023-03-28T17:58:17.442Z,6.57
2023-03-28T18:03:19.289Z,4.53
2023-03-28T18:08:40.308Z,3.88
2023-03-28T18:13:43.004Z,4.70
2023-03-28T18:18:45.021Z,4.50
2023-03-28T18:23:48.309Z,6.75
2023-03-28T18:28:50.500Z,4.80
2023-03-28T18:33:54.023Z,6.57
2023-03-28T18:38:56.307Z,6.50
2023-03-28T18:43:58.269Z,9.27
2023-03-28T18:49:00.841Z,2.00
2023-03-28T18:54:03.893Z,5.88
2023-03-28T18:59:05.800Z,13.63
2023-03-28T19:04:08.151Z,37.30
2023-03-28T19:09:10.288Z,33.90
2023-03-28T19:14:12.108Z,32.45
2023-03-28T19:19:14.350Z,15.10
2023-03-28T19:24:16.254Z,4.22
2023-03-28T19:29:18.148Z,6.85
2023-03-28T19:34:21.591Z,7.50
2023-03-28T19:39:23.478Z,10.55
2023-03-28T19:44:25.882Z,9.90
2023-03-28T19:49:27.709Z,7.18
2023-03-28T19:54:29.523Z,10.43
2023-03-28T19:59:31.353Z,7.35
2023-03-28T20:04:33.137Z,11.63
2023-03-28T20:09:35.608Z,6.68
2023-03-28T20:14:41.012Z,6.82
2023-03-28T20:19:43.169Z,5.03
2023-03-28T20:24:45.047Z,4.07
2023-03-28T20:29:46.990Z,7.50
2023-03-28T20:34:49.059Z,2.55
2023-03-28T20:39:52.236Z,13.77
2023-03-28T20:44:55.862Z,6.57
2023-03-28T20:50:05.617Z,3.17
2023-03-28T20:55:10.676Z,4.25
2023-03-28T21:00:14.860Z,2.88
2023-03-28T21:05:18.689Z,6.18
2023-03-28T21:10:20.969Z,4.50
2023-03-28T21:15:22.888Z,4.63
2023-03-28T21:20:24.798Z,4.20
2023-03-28T21:25:27.284Z,3.17
2023-03-28T21:30:29.089Z,4.18
2023-03-28T21:35:31.075Z,4.10
2023-03-28T21:40:32.908Z,5.13
2023-03-28T21:45:34.731Z,9.07
2023-03-28T21:50:38.882Z,6.60
2023-03-28T21:55:42.366Z,8.07
2023-03-28T22:00:44.211Z,2.75
2023-03-28T22:05:46.416Z,3.20
2023-03-28T22:10:54.733Z,7.93
2023-03-28T22:16:00.679Z,2.72
2023-03-28T22:21:04.186Z,8.13
2023-03-28T22:26:09.472Z,7.50
2023-03-28T22:31:11.889Z,4.10
2023-03-28T22:36:13.881Z,2.78
2023-03-28T22:41:15.834Z,4.50
2023-03-28T22:46:18.126Z,7.20
2023-03-28T22:51:20.959Z,2.58
2023-03-28T22:56:24.529Z,2.88
2023-03-28T23:01:28.877Z,2.42
2023-03-28T23:06:31.870Z,4.47
2023-03-28T23:11:33.914Z,2.95
2023-03-28T23:16:35.947Z,8.57
2023-03-28T23:21:37.777Z,1.75
2023-03-28T23:26:39.671Z,2.80
2023-03-28T23:31:41.566Z,5.82
2023-03-28T23:36:46.373Z,7.40
2023-03-28T23:41:48.131Z,3.05
2023-03-28T23:46:50.004Z,3.10
2023-03-28T23:51:51.759Z,2.85
2023-03-28T23:56:54.274Z,2.80
